sensor_id;sensor_type;location;lat;lon;timestamp;temperature;humidity
33715;DHT22;20043;50.998;4.754;2022-10-16T00:00:35;15.90;99.90
33715;DHT22;20043;50.998;4.754;2022-10-16T00:03:02;16.00;99.90
33715;DHT22;20043;50.998;4.754;2022-10-16T00:05:28;15.90;99.90
33715;DHT22;20043;50.998;4.754;2022-10-16T00:07:53;15.90;99.90
33715;DHT22;20043;50.998;4.754;2022-10-16T00:10:19;16.00;99.90
33715;DHT22;20043;50.998;4.754;2022-10-16T00:12:44;15.80;99.90
33715;DHT22;20043;50.998;4.754;2022-10-16T00:15:11;15.80;99.90
33715;DHT22;20043;50.998;4.754;2022-10-16T00:17:36;15.80;99.90
33715;DHT22;20043;50.998;4.754;2022-10-16T00:20:02;15.80;99.90
33715;DHT22;20043;50.998;4.754;2022-10-16T00:22:28;15.90;99.90
33715;DHT22;20043;50.998;4.754;2022-10-16T00:24:54;16.00;99.90
33715;DHT22;20043;50.998;4.754;2022-10-16T00:27:20;16.00;99.90
33715;DHT22;20043;50.998;4.754;2022-10-16T00:29:49;15.90;99.90
33715;DHT22;20043;50.998;4.754;2022-10-16T00:32:15;16.00;99.90
33715;DHT22;20043;50.998;4.754;2022-10-16T00:34:41;16.00;99.90
33715;DHT22;20043;50.998;4.754;2022-10-16T00:37:06;15.80;99.90
33715;DHT22;20043;50.998;4.754;2022-10-16T00:39:32;15.70;99.90
33715;DHT22;20043;50.998;4.754;2022-10-16T00:41:57;15.80;99.90
33715;DHT22;20043;50.998;4.754;2022-10-16T00:44:56;15.50;99.90
33715;DHT22;20043;50.998;4.754;2022-10-16T00:47:42;15.60;99.90
33715;DHT22;20043;50.998;4.754;2022-10-16T00:50:42;15.60;99.90
33715;DHT22;20043;50.998;4.754;2022-10-16T00:53:10;15.50;99.90
33715;DHT22;20043;50.998;4.754;2022-10-16T00:55:36;15.50;99.90
33715;DHT22;20043;50.998;4.754;2022-10-16T00:58:02;15.40;99.90
33715;DHT22;20043;50.998;4.754;2022-10-16T01:00:27;15.30;99.90
33715;DHT22;20043;50.998;4.754;2022-10-16T01:02:59;15.20;99.90
33715;DHT22;20043;50.998;4.754;2022-10-16T01:05:41;15.20;99.90
33715;DHT22;20043;50.998;4.754;2022-10-16T01:08:13;15.10;99.90
33715;DHT22;20043;50.998;4.754;2022-10-16T01:10:57;15.10;99.90
33715;DHT22;20043;50.998;4.754;2022-10-16T01:13:35;15.10;99.90
33715;DHT22;20043;50.998;4.754;2022-10-16T01:16:06;15.10;99.90
33715;DHT22;20043;50.998;4.754;2022-10-16T01:18:54;15.00;99.90
33715;DHT22;20043;50.998;4.754;2022-10-16T01:21:26;14.90;99.90
33715;DHT22;20043;50.998;4.754;2022-10-16T01:24:20;14.90;99.90
33715;DHT22;20043;50.998;4.754;2022-10-16T01:27:21;14.90;99.90
33715;DHT22;20043;50.998;4.754;2022-10-16T01:30:12;14.90;99.90
33715;DHT22;20043;50.998;4.754;2022-10-16T01:32:49;15.00;99.90
33715;DHT22;20043;50.998;4.754;2022-10-16T01:35:37;15.00;99.90
33715;DHT22;20043;50.998;4.754;2022-10-16T01:38:15;15.10;99.90
33715;DHT22;20043;50.998;4.754;2022-10-16T01:40:47;15.10;99.90
33715;DHT22;20043;50.998;4.754;2022-10-16T01:43:19;15.00;99.90
33715;DHT22;20043;50.998;4.754;2022-10-16T01:45:46;15.00;99.90
33715;DHT22;20043;50.998;4.754;2022-10-16T01:48:15;14.90;99.90
33715;DHT22;20043;50.998;4.754;2022-10-16T01:50:44;15.00;99.90
33715;DHT22;20043;50.998;4.754;2022-10-16T01:53:12;14.90;99.90
33715;DHT22;20043;50.998;4.754;2022-10-16T01:55:41;14.90;99.90
33715;DHT22;20043;50.998;4.754;2022-10-16T01:58:11;15.00;99.90
33715;DHT22;20043;50.998;4.754;2022-10-16T02:00:39;15.10;99.90
33715;DHT22;20043;50.998;4.754;2022-10-16T02:03:07;15.00;99.90
33715;DHT22;20043;50.998;4.754;2022-10-16T02:05:52;15.00;99.90
33715;DHT22;20043;50.998;4.754;2022-10-16T02:08:18;14.90;99.90
33715;DHT22;20043;50.998;4.754;2022-10-16T02:10:44;14.90;99.90
33715;DHT22;20043;50.998;4.754;2022-10-16T02:13:17;14.90;99.90
33715;DHT22;20043;50.998;4.754;2022-10-16T02:15:43;14.90;99.90
33715;DHT22;20043;50.998;4.754;2022-10-16T02:18:09;15.00;99.90
33715;DHT22;20043;50.998;4.754;2022-10-16T02:20:45;15.10;99.90
33715;DHT22;20043;50.998;4.754;2022-10-16T02:23:19;15.00;99.90
33715;DHT22;20043;50.998;4.754;2022-10-16T02:25:47;15.00;99.90
33715;DHT22;20043;50.998;4.754;2022-10-16T02:28:19;15.00;99.90
33715;DHT22;20043;50.998;4.754;2022-10-16T02:31:04;15.00;99.90
33715;DHT22;20043;50.998;4.754;2022-10-16T02:33:31;15.10;99.90
33715;DHT22;20043;50.998;4.754;2022-10-16T02:35:58;15.00;99.90
33715;DHT22;20043;50.998;4.754;2022-10-16T02:38:25;15.00;99.90
33715;DHT22;20043;50.998;4.754;2022-10-16T02:40:51;15.00;99.90
33715;DHT22;20043;50.998;4.754;2022-10-16T02:43:17;15.00;99.90
33715;DHT22;20043;50.998;4.754;2022-10-16T02:45:43;14.90;99.90
33715;DHT22;20043;50.998;4.754;2022-10-16T02:48:09;14.90;99.90
33715;DHT22;20043;50.998;4.754;2022-10-16T02:50:35;14.90;99.90
33715;DHT22;20043;50.998;4.754;2022-10-16T02:53:00;14.80;99.90
33715;DHT22;20043;50.998;4.754;2022-10-16T02:55:26;14.90;99.90
33715;DHT22;20043;50.998;4.754;2022-10-16T02:57:53;14.90;99.90
33715;DHT22;20043;50.998;4.754;2022-10-16T03:00:19;14.90;99.90
33715;DHT22;20043;50.998;4.754;2022-10-16T03:02:45;15.00;99.90
33715;DHT22;20043;50.998;4.754;2022-10-16T03:05:12;14.90;99.90
33715;DHT22;20043;50.998;4.754;2022-10-16T03:07:38;14.90;99.90
33715;DHT22;20043;50.998;4.754;2022-10-16T03:10:04;14.80;99.90
33715;DHT22;20043;50.998;4.754;2022-10-16T03:12:30;14.80;99.90
33715;DHT22;20043;50.998;4.754;2022-10-16T03:14:56;14.70;99.90
33715;DHT22;20043;50.998;4.754;2022-10-16T03:17:22;14.70;99.90
33715;DHT22;20043;50.998;4.754;2022-10-16T03:19:48;14.60;99.90
33715;DHT22;20043;50.998;4.754;2022-10-16T03:22:14;14.70;99.90
33715;DHT22;20043;50.998;4.754;2022-10-16T03:24:39;14.70;99.90
33715;DHT22;20043;50.998;4.754;2022-10-16T03:27:05;14.70;99.90
33715;DHT22;20043;50.998;4.754;2022-10-16T03:29:30;14.60;99.90
33715;DHT22;20043;50.998;4.754;2022-10-16T03:31:57;14.70;99.90
33715;DHT22;20043;50.998;4.754;2022-10-16T03:34:23;14.80;99.90
33715;DHT22;20043;50.998;4.754;2022-10-16T03:36:48;14.70;99.90
33715;DHT22;20043;50.998;4.754;2022-10-16T03:39:14;14.70;99.90
33715;DHT22;20043;50.998;4.754;2022-10-16T03:41:40;14.80;99.90
33715;DHT22;20043;50.998;4.754;2022-10-16T03:44:05;14.80;99.90
33715;DHT22;20043;50.998;4.754;2022-10-16T03:46:31;14.80;99.90
33715;DHT22;20043;50.998;4.754;2022-10-16T03:48:57;14.80;99.90
33715;DHT22;20043;50.998;4.754;2022-10-16T03:51:23;14.80;99.90
33715;DHT22;20043;50.998;4.754;2022-10-16T03:53:48;14.80;99.90
33715;DHT22;20043;50.998;4.754;2022-10-16T03:56:14;14.80;99.90
33715;DHT22;20043;50.998;4.754;2022-10-16T03:58:40;14.70;99.90
33715;DHT22;20043;50.998;4.754;2022-10-16T04:01:05;14.70;99.90
33715;DHT22;20043;50.998;4.754;2022-10-16T04:03:31;14.80;99.90
33715;DHT22;20043;50.998;4.754;2022-10-16T04:05:56;14.80;99.90
33715;DHT22;20043;50.998;4.754;2022-10-16T04:08:22;14.70;99.90
33715;DHT22;20043;50.998;4.754;2022-10-16T04:10:47;14.70;99.90
33715;DHT22;20043;50.998;4.754;2022-10-16T04:13:13;14.80;99.90
33715;DHT22;20043;50.998;4.754;2022-10-16T04:15:39;14.90;99.90
33715;DHT22;20043;50.998;4.754;2022-10-16T04:18:05;14.90;99.90
33715;DHT22;20043;50.998;4.754;2022-10-16T04:20:31;14.90;99.90
33715;DHT22;20043;50.998;4.754;2022-10-16T04:22:56;14.90;99.90
33715;DHT22;20043;50.998;4.754;2022-10-16T04:25:22;14.80;99.90
33715;DHT22;20043;50.998;4.754;2022-10-16T04:27:48;14.90;99.90
33715;DHT22;20043;50.998;4.754;2022-10-16T04:30:13;14.80;99.90
33715;DHT22;20043;50.998;4.754;2022-10-16T04:32:39;14.70;99.90
33715;DHT22;20043;50.998;4.754;2022-10-16T04:35:06;14.80;99.90
33715;DHT22;20043;50.998;4.754;2022-10-16T04:37:32;14.60;99.90
33715;DHT22;20043;50.998;4.754;2022-10-16T04:39:57;14.70;99.90
33715;DHT22;20043;50.998;4.754;2022-10-16T04:42:23;14.80;99.90
33715;DHT22;20043;50.998;4.754;2022-10-16T04:44:49;14.90;99.90
33715;DHT22;20043;50.998;4.754;2022-10-16T04:47:14;14.80;99.90
33715;DHT22;20043;50.998;4.754;2022-10-16T04:49:40;14.80;99.90
33715;DHT22;20043;50.998;4.754;2022-10-16T04:52:06;14.80;99.90
33715;DHT22;20043;50.998;4.754;2022-10-16T04:54:31;14.90;99.90
33715;DHT22;20043;50.998;4.754;2022-10-16T04:56:57;14.90;99.90
33715;DHT22;20043;50.998;4.754;2022-10-16T04:59:23;14.80;99.90
33715;DHT22;20043;50.998;4.754;2022-10-16T05:01:49;14.80;99.90
33715;DHT22;20043;50.998;4.754;2022-10-16T05:04:14;14.90;99.90
33715;DHT22;20043;50.998;4.754;2022-10-16T05:06:41;14.80;99.90
33715;DHT22;20043;50.998;4.754;2022-10-16T05:09:07;14.70;99.90
33715;DHT22;20043;50.998;4.754;2022-10-16T05:11:33;14.70;99.90
33715;DHT22;20043;50.998;4.754;2022-10-16T05:13:59;14.70;99.90
33715;DHT22;20043;50.998;4.754;2022-10-16T05:16:24;14.70;99.90
33715;DHT22;20043;50.998;4.754;2022-10-16T05:18:52;14.60;99.90
33715;DHT22;20043;50.998;4.754;2022-10-16T05:21:18;14.60;99.90
33715;DHT22;20043;50.998;4.754;2022-10-16T05:23:43;14.60;99.90
33715;DHT22;20043;50.998;4.754;2022-10-16T05:26:09;14.70;99.90
33715;DHT22;20043;50.998;4.754;2022-10-16T05:28:35;14.80;99.90
33715;DHT22;20043;50.998;4.754;2022-10-16T05:31:08;14.70;99.90
33715;DHT22;20043;50.998;4.754;2022-10-16T05:33:34;14.60;99.90
33715;DHT22;20043;50.998;4.754;2022-10-16T05:36:07;14.60;99.90
33715;DHT22;20043;50.998;4.754;2022-10-16T05:38:35;14.50;99.90
33715;DHT22;20043;50.998;4.754;2022-10-16T05:41:00;14.40;99.90
33715;DHT22;20043;50.998;4.754;2022-10-16T05:43:28;14.40;99.90
33715;DHT22;20043;50.998;4.754;2022-10-16T05:45:55;14.50;99.90
33715;DHT22;20043;50.998;4.754;2022-10-16T05:48:21;14.40;99.90
33715;DHT22;20043;50.998;4.754;2022-10-16T05:50:47;14.40;99.90
33715;DHT22;20043;50.998;4.754;2022-10-16T05:53:13;14.40;99.90
33715;DHT22;20043;50.998;4.754;2022-10-16T05:55:38;14.40;99.90
33715;DHT22;20043;50.998;4.754;2022-10-16T05:58:04;14.40;99.90
33715;DHT22;20043;50.998;4.754;2022-10-16T06:00:30;14.40;99.90
33715;DHT22;20043;50.998;4.754;2022-10-16T06:02:55;14.40;99.90
33715;DHT22;20043;50.998;4.754;2022-10-16T06:05:21;14.40;99.90
33715;DHT22;20043;50.998;4.754;2022-10-16T06:07:46;14.40;99.90
33715;DHT22;20043;50.998;4.754;2022-10-16T06:10:12;14.50;99.90
33715;DHT22;20043;50.998;4.754;2022-10-16T06:12:37;14.40;99.90
33715;DHT22;20043;50.998;4.754;2022-10-16T06:15:03;14.40;99.90
33715;DHT22;20043;50.998;4.754;2022-10-16T06:17:29;14.40;99.90
33715;DHT22;20043;50.998;4.754;2022-10-16T06:19:54;14.30;99.90
33715;DHT22;20043;50.998;4.754;2022-10-16T06:22:20;14.40;99.90
33715;DHT22;20043;50.998;4.754;2022-10-16T06:24:46;14.40;99.90
33715;DHT22;20043;50.998;4.754;2022-10-16T06:27:12;14.40;99.90
33715;DHT22;20043;50.998;4.754;2022-10-16T06:29:38;14.40;99.90
33715;DHT22;20043;50.998;4.754;2022-10-16T06:32:04;14.40;99.90
33715;DHT22;20043;50.998;4.754;2022-10-16T06:34:29;14.40;99.90
33715;DHT22;20043;50.998;4.754;2022-10-16T06:36:55;14.40;99.90
33715;DHT22;20043;50.998;4.754;2022-10-16T06:39:20;14.40;99.90
33715;DHT22;20043;50.998;4.754;2022-10-16T06:41:46;14.40;99.90
33715;DHT22;20043;50.998;4.754;2022-10-16T06:44:12;14.50;99.90
33715;DHT22;20043;50.998;4.754;2022-10-16T06:46:37;14.50;99.90
33715;DHT22;20043;50.998;4.754;2022-10-16T06:49:03;14.40;99.90
33715;DHT22;20043;50.998;4.754;2022-10-16T06:51:28;14.50;99.90
33715;DHT22;20043;50.998;4.754;2022-10-16T06:53:55;14.50;99.90
33715;DHT22;20043;50.998;4.754;2022-10-16T06:56:26;14.50;99.90
33715;DHT22;20043;50.998;4.754;2022-10-16T06:58:52;14.40;99.90
33715;DHT22;20043;50.998;4.754;2022-10-16T07:01:20;14.40;99.90
33715;DHT22;20043;50.998;4.754;2022-10-16T07:03:46;14.50;99.90
33715;DHT22;20043;50.998;4.754;2022-10-16T07:06:14;14.60;99.90
33715;DHT22;20043;50.998;4.754;2022-10-16T07:08:41;14.70;99.90
33715;DHT22;20043;50.998;4.754;2022-10-16T07:11:12;14.80;99.90
33715;DHT22;20043;50.998;4.754;2022-10-16T07:13:39;14.80;99.90
33715;DHT22;20043;50.998;4.754;2022-10-16T07:16:11;14.90;99.90
33715;DHT22;20043;50.998;4.754;2022-10-16T07:18:37;15.00;99.90
33715;DHT22;20043;50.998;4.754;2022-10-16T07:21:15;15.00;99.90
33715;DHT22;20043;50.998;4.754;2022-10-16T07:23:42;15.00;99.90
33715;DHT22;20043;50.998;4.754;2022-10-16T07:26:08;15.00;99.90
33715;DHT22;20043;50.998;4.754;2022-10-16T07:28:35;15.10;99.90
33715;DHT22;20043;50.998;4.754;2022-10-16T07:31:05;15.10;99.90
33715;DHT22;20043;50.998;4.754;2022-10-16T07:33:32;15.10;99.90
33715;DHT22;20043;50.998;4.754;2022-10-16T07:35:59;15.10;99.90
33715;DHT22;20043;50.998;4.754;2022-10-16T07:38:24;15.30;99.90
33715;DHT22;20043;50.998;4.754;2022-10-16T07:41:05;15.40;99.90
33715;DHT22;20043;50.998;4.754;2022-10-16T07:43:31;15.40;99.90
33715;DHT22;20043;50.998;4.754;2022-10-16T07:45:57;15.60;99.90
33715;DHT22;20043;50.998;4.754;2022-10-16T07:48:25;15.60;99.90
33715;DHT22;20043;50.998;4.754;2022-10-16T07:50:52;15.70;99.90
33715;DHT22;20043;50.998;4.754;2022-10-16T07:53:17;15.80;99.90
33715;DHT22;20043;50.998;4.754;2022-10-16T07:55:43;15.70;99.90
33715;DHT22;20043;50.998;4.754;2022-10-16T07:58:09;15.60;99.90
33715;DHT22;20043;50.998;4.754;2022-10-16T08:00:36;15.60;99.90
33715;DHT22;20043;50.998;4.754;2022-10-16T08:03:02;15.70;99.90
33715;DHT22;20043;50.998;4.754;2022-10-16T08:05:29;15.80;99.90
33715;DHT22;20043;50.998;4.754;2022-10-16T08:07:56;16.00;99.90
33715;DHT22;20043;50.998;4.754;2022-10-16T08:10:24;16.00;99.90
33715;DHT22;20043;50.998;4.754;2022-10-16T08:12:50;16.00;99.90
33715;DHT22;20043;50.998;4.754;2022-10-16T08:15:16;16.00;99.90
33715;DHT22;20043;50.998;4.754;2022-10-16T08:17:41;16.00;99.90
33715;DHT22;20043;50.998;4.754;2022-10-16T08:20:08;16.00;99.90
33715;DHT22;20043;50.998;4.754;2022-10-16T08:22:33;16.10;99.90
33715;DHT22;20043;50.998;4.754;2022-10-16T08:24:59;16.20;99.90
33715;DHT22;20043;50.998;4.754;2022-10-16T08:27:24;16.10;99.90
33715;DHT22;20043;50.998;4.754;2022-10-16T08:29:50;16.30;99.90
33715;DHT22;20043;50.998;4.754;2022-10-16T08:32:16;16.30;99.90
33715;DHT22;20043;50.998;4.754;2022-10-16T08:34:41;16.30;99.90
33715;DHT22;20043;50.998;4.754;2022-10-16T08:37:07;16.40;99.90
33715;DHT22;20043;50.998;4.754;2022-10-16T08:39:36;16.50;99.90
33715;DHT22;20043;50.998;4.754;2022-10-16T08:45:02;16.60;99.90
33715;DHT22;20043;50.998;4.754;2022-10-16T08:47:48;16.70;99.90
33715;DHT22;20043;50.998;4.754;2022-10-16T08:50:21;16.80;99.90
33715;DHT22;20043;50.998;4.754;2022-10-16T08:52:48;16.80;99.90
33715;DHT22;20043;50.998;4.754;2022-10-16T08:55:44;17.00;99.90
33715;DHT22;20043;50.998;4.754;2022-10-16T08:58:18;16.90;99.90
33715;DHT22;20043;50.998;4.754;2022-10-16T09:00:47;17.00;99.90
33715;DHT22;20043;50.998;4.754;2022-10-16T09:06:16;17.00;99.90
33715;DHT22;20043;50.998;4.754;2022-10-16T09:08:58;17.00;99.90
33715;DHT22;20043;50.998;4.754;2022-10-16T09:11:51;17.10;99.90
33715;DHT22;20043;50.998;4.754;2022-10-16T09:20:02;17.60;99.90
33715;DHT22;20043;50.998;4.754;2022-10-16T09:22:31;17.60;99.90
33715;DHT22;20043;50.998;4.754;2022-10-16T09:25:00;17.70;99.90
33715;DHT22;20043;50.998;4.754;2022-10-16T09:27:34;17.80;99.90
33715;DHT22;20043;50.998;4.754;2022-10-16T09:30:01;17.90;99.90
33715;DHT22;20043;50.998;4.754;2022-10-16T09:32:28;18.00;99.90
33715;DHT22;20043;50.998;4.754;2022-10-16T09:34:55;18.10;99.90
33715;DHT22;20043;50.998;4.754;2022-10-16T09:37:24;18.10;99.90
33715;DHT22;20043;50.998;4.754;2022-10-16T09:39:54;18.30;99.90
33715;DHT22;20043;50.998;4.754;2022-10-16T09:42:33;18.50;99.90
33715;DHT22;20043;50.998;4.754;2022-10-16T09:45:01;18.50;99.90
33715;DHT22;20043;50.998;4.754;2022-10-16T09:47:27;18.40;99.90
33715;DHT22;20043;50.998;4.754;2022-10-16T09:49:58;18.70;99.90
33715;DHT22;20043;50.998;4.754;2022-10-16T09:52:28;18.80;99.90
33715;DHT22;20043;50.998;4.754;2022-10-16T09:55:00;18.80;99.90
33715;DHT22;20043;50.998;4.754;2022-10-16T09:57:27;18.80;99.90
33715;DHT22;20043;50.998;4.754;2022-10-16T09:59:54;18.80;99.90
33715;DHT22;20043;50.998;4.754;2022-10-16T10:02:34;19.00;99.90
33715;DHT22;20043;50.998;4.754;2022-10-16T10:05:00;18.90;99.90
33715;DHT22;20043;50.998;4.754;2022-10-16T10:07:38;18.90;99.90
33715;DHT22;20043;50.998;4.754;2022-10-16T10:10:21;19.00;99.90
33715;DHT22;20043;50.998;4.754;2022-10-16T10:12:47;19.10;99.90
33715;DHT22;20043;50.998;4.754;2022-10-16T10:15:14;19.20;99.90
33715;DHT22;20043;50.998;4.754;2022-10-16T10:17:56;19.40;99.90
33715;DHT22;20043;50.998;4.754;2022-10-16T10:20:29;19.40;99.90
33715;DHT22;20043;50.998;4.754;2022-10-16T10:22:56;19.40;99.90
33715;DHT22;20043;50.998;4.754;2022-10-16T10:28:21;19.40;99.90
33715;DHT22;20043;50.998;4.754;2022-10-16T10:30:57;19.40;99.90
33715;DHT22;20043;50.998;4.754;2022-10-16T10:36:38;19.50;99.90
33715;DHT22;20043;50.998;4.754;2022-10-16T10:41:47;19.60;99.90
33715;DHT22;20043;50.998;4.754;2022-10-16T10:47:27;19.90;99.90
33715;DHT22;20043;50.998;4.754;2022-10-16T11:06:46;19.90;99.90
33715;DHT22;20043;50.998;4.754;2022-10-16T11:09:15;20.00;99.90
33715;DHT22;20043;50.998;4.754;2022-10-16T11:11:56;20.00;99.90
33715;DHT22;20043;50.998;4.754;2022-10-16T11:14:33;19.80;99.90
33715;DHT22;20043;50.998;4.754;2022-10-16T11:17:10;19.60;99.90
33715;DHT22;20043;50.998;4.754;2022-10-16T11:19:49;19.70;99.90
33715;DHT22;20043;50.998;4.754;2022-10-16T11:22:37;19.80;99.90
33715;DHT22;20043;50.998;4.754;2022-10-16T11:25:26;20.10;99.90
33715;DHT22;20043;50.998;4.754;2022-10-16T11:30:26;20.30;99.90
33715;DHT22;20043;50.998;4.754;2022-10-16T11:33:25;20.30;99.90
33715;DHT22;20043;50.998;4.754;2022-10-16T11:36:27;20.40;99.90
33715;DHT22;20043;50.998;4.754;2022-10-16T11:39:24;20.60;99.90
33715;DHT22;20043;50.998;4.754;2022-10-16T11:42:16;20.70;99.90
33715;DHT22;20043;50.998;4.754;2022-10-16T11:45:00;20.70;99.90
33715;DHT22;20043;50.998;4.754;2022-10-16T11:47:54;20.70;99.90
33715;DHT22;20043;50.998;4.754;2022-10-16T11:50:34;21.00;99.90
33715;DHT22;20043;50.998;4.754;2022-10-16T11:55:49;21.40;99.90
33715;DHT22;20043;50.998;4.754;2022-10-16T11:58:25;21.40;99.90
33715;DHT22;20043;50.998;4.754;2022-10-16T12:01:00;21.40;99.90
33715;DHT22;20043;50.998;4.754;2022-10-16T12:03:42;21.70;99.90
33715;DHT22;20043;50.998;4.754;2022-10-16T12:06:34;21.80;99.90
33715;DHT22;20043;50.998;4.754;2022-10-16T12:09:01;21.70;99.90
33715;DHT22;20043;50.998;4.754;2022-10-16T12:16:57;20.90;99.90
33715;DHT22;20043;50.998;4.754;2022-10-16T12:19:28;20.90;99.90
33715;DHT22;20043;50.998;4.754;2022-10-16T12:21:59;20.70;99.90
33715;DHT22;20043;50.998;4.754;2022-10-16T12:24:35;20.60;99.90
33715;DHT22;20043;50.998;4.754;2022-10-16T12:27:03;20.90;99.90
33715;DHT22;20043;50.998;4.754;2022-10-16T12:29:34;21.00;99.90
33715;DHT22;20043;50.998;4.754;2022-10-16T12:32:00;21.10;99.90
33715;DHT22;20043;50.998;4.754;2022-10-16T12:34:32;21.00;99.90
33715;DHT22;20043;50.998;4.754;2022-10-16T12:37:18;21.10;99.90
33715;DHT22;20043;50.998;4.754;2022-10-16T12:39:47;21.10;99.90
33715;DHT22;20043;50.998;4.754;2022-10-16T12:44:54;21.30;99.90
33715;DHT22;20043;50.998;4.754;2022-10-16T12:47:36;21.20;99.90
33715;DHT22;20043;50.998;4.754;2022-10-16T12:50:03;21.10;99.90
33715;DHT22;20043;50.998;4.754;2022-10-16T12:52:39;21.00;99.90
33715;DHT22;20043;50.998;4.754;2022-10-16T12:55:09;20.90;99.90
33715;DHT22;20043;50.998;4.754;2022-10-16T13:00:41;21.00;99.90
33715;DHT22;20043;50.998;4.754;2022-10-16T13:03:46;20.90;99.90
33715;DHT22;20043;50.998;4.754;2022-10-16T13:08:54;20.70;99.90
33715;DHT22;20043;50.998;4.754;2022-10-16T13:20:03;20.40;99.90
33715;DHT22;20043;50.998;4.754;2022-10-16T13:28:28;20.90;99.90
33715;DHT22;20043;50.998;4.754;2022-10-16T13:30:57;20.90;99.90
33715;DHT22;20043;50.998;4.754;2022-10-16T13:33:35;21.00;99.90
33715;DHT22;20043;50.998;4.754;2022-10-16T13:36:02;21.20;99.90
33715;DHT22;20043;50.998;4.754;2022-10-16T13:38:34;21.30;99.90
33715;DHT22;20043;50.998;4.754;2022-10-16T13:41:05;21.10;99.90
33715;DHT22;20043;50.998;4.754;2022-10-16T13:43:37;21.00;99.90
33715;DHT22;20043;50.998;4.754;2022-10-16T13:46:20;21.10;99.90
33715;DHT22;20043;50.998;4.754;2022-10-16T13:48:59;21.10;99.90
33715;DHT22;20043;50.998;4.754;2022-10-16T13:51:25;21.20;99.90
33715;DHT22;20043;50.998;4.754;2022-10-16T13:53:50;21.30;99.90
33715;DHT22;20043;50.998;4.754;2022-10-16T13:56:19;21.20;99.90
33715;DHT22;20043;50.998;4.754;2022-10-16T13:58:45;21.20;99.90
33715;DHT22;20043;50.998;4.754;2022-10-16T14:01:23;21.30;99.90
33715;DHT22;20043;50.998;4.754;2022-10-16T14:03:50;21.30;99.90
33715;DHT22;20043;50.998;4.754;2022-10-16T14:06:19;21.30;99.90
33715;DHT22;20043;50.998;4.754;2022-10-16T14:08:56;21.10;99.90
33715;DHT22;20043;50.998;4.754;2022-10-16T14:11:24;21.00;99.90
33715;DHT22;20043;50.998;4.754;2022-10-16T14:13:51;21.00;99.90
33715;DHT22;20043;50.998;4.754;2022-10-16T14:16:19;21.10;99.90
33715;DHT22;20043;50.998;4.754;2022-10-16T14:18:51;21.00;99.90
33715;DHT22;20043;50.998;4.754;2022-10-16T14:21:18;21.10;99.90
33715;DHT22;20043;50.998;4.754;2022-10-16T14:23:44;21.20;99.90
33715;DHT22;20043;50.998;4.754;2022-10-16T14:28:36;21.00;99.90
33715;DHT22;20043;50.998;4.754;2022-10-16T14:33:47;21.00;99.90
33715;DHT22;20043;50.998;4.754;2022-10-16T14:36:14;21.20;99.90
33715;DHT22;20043;50.998;4.754;2022-10-16T14:38:47;21.20;99.90
33715;DHT22;20043;50.998;4.754;2022-10-16T14:41:13;21.20;99.90
33715;DHT22;20043;50.998;4.754;2022-10-16T14:43:41;21.10;99.90
33715;DHT22;20043;50.998;4.754;2022-10-16T14:46:14;21.20;99.90
33715;DHT22;20043;50.998;4.754;2022-10-16T14:48:47;21.10;99.90
33715;DHT22;20043;50.998;4.754;2022-10-16T14:51:18;21.10;99.90
33715;DHT22;20043;50.998;4.754;2022-10-16T14:53:44;21.00;99.90
33715;DHT22;20043;50.998;4.754;2022-10-16T14:56:24;20.90;99.90
33715;DHT22;20043;50.998;4.754;2022-10-16T14:58:51;20.80;99.90
33715;DHT22;20043;50.998;4.754;2022-10-16T15:01:17;20.70;99.90
33715;DHT22;20043;50.998;4.754;2022-10-16T15:03:43;20.60;99.90
33715;DHT22;20043;50.998;4.754;2022-10-16T15:06:11;20.50;99.90
33715;DHT22;20043;50.998;4.754;2022-10-16T15:08:37;20.30;99.90
33715;DHT22;20043;50.998;4.754;2022-10-16T15:11:03;20.30;99.90
33715;DHT22;20043;50.998;4.754;2022-10-16T15:13:29;20.10;99.90
33715;DHT22;20043;50.998;4.754;2022-10-16T15:15:54;20.00;99.90
33715;DHT22;20043;50.998;4.754;2022-10-16T15:18:20;20.00;99.90
33715;DHT22;20043;50.998;4.754;2022-10-16T15:20:49;20.10;99.90
33715;DHT22;20043;50.998;4.754;2022-10-16T15:23:23;20.10;99.90
33715;DHT22;20043;50.998;4.754;2022-10-16T15:25:52;20.00;99.90
33715;DHT22;20043;50.998;4.754;2022-10-16T15:28:20;20.20;99.90
33715;DHT22;20043;50.998;4.754;2022-10-16T15:30:46;20.10;99.90
33715;DHT22;20043;50.998;4.754;2022-10-16T15:33:16;20.10;99.90
33715;DHT22;20043;50.998;4.754;2022-10-16T15:35:42;20.10;99.90
33715;DHT22;20043;50.998;4.754;2022-10-16T15:38:14;19.90;99.90
33715;DHT22;20043;50.998;4.754;2022-10-16T15:40:40;19.90;99.90
33715;DHT22;20043;50.998;4.754;2022-10-16T15:43:07;20.00;99.90
33715;DHT22;20043;50.998;4.754;2022-10-16T15:45:33;20.10;99.90
33715;DHT22;20043;50.998;4.754;2022-10-16T15:47:59;20.10;99.90
33715;DHT22;20043;50.998;4.754;2022-10-16T15:50:24;20.10;99.90
33715;DHT22;20043;50.998;4.754;2022-10-16T15:52:50;20.10;99.90
33715;DHT22;20043;50.998;4.754;2022-10-16T15:55:16;20.00;99.90
33715;DHT22;20043;50.998;4.754;2022-10-16T15:57:44;19.80;99.90
33715;DHT22;20043;50.998;4.754;2022-10-16T16:00:13;19.70;99.90
33715;DHT22;20043;50.998;4.754;2022-10-16T16:02:40;19.60;99.90
33715;DHT22;20043;50.998;4.754;2022-10-16T16:05:07;19.70;99.90
33715;DHT22;20043;50.998;4.754;2022-10-16T16:07:37;19.50;99.90
33715;DHT22;20043;50.998;4.754;2022-10-16T16:10:05;19.60;99.90
33715;DHT22;20043;50.998;4.754;2022-10-16T16:12:31;19.50;99.90
33715;DHT22;20043;50.998;4.754;2022-10-16T16:14:57;19.30;99.90
33715;DHT22;20043;50.998;4.754;2022-10-16T16:17:22;19.10;99.90
33715;DHT22;20043;50.998;4.754;2022-10-16T16:19:49;19.00;99.90
33715;DHT22;20043;50.998;4.754;2022-10-16T16:22:14;19.10;99.90
33715;DHT22;20043;50.998;4.754;2022-10-16T16:24:40;19.20;99.90
33715;DHT22;20043;50.998;4.754;2022-10-16T16:27:05;19.20;99.90
33715;DHT22;20043;50.998;4.754;2022-10-16T16:29:31;19.20;99.90
33715;DHT22;20043;50.998;4.754;2022-10-16T16:31:56;19.10;99.90
33715;DHT22;20043;50.998;4.754;2022-10-16T16:34:25;19.30;99.90
33715;DHT22;20043;50.998;4.754;2022-10-16T16:36:51;19.10;99.90
33715;DHT22;20043;50.998;4.754;2022-10-16T16:39:17;18.60;99.90
33715;DHT22;20043;50.998;4.754;2022-10-16T16:41:43;18.60;99.90
33715;DHT22;20043;50.998;4.754;2022-10-16T16:44:11;18.60;99.90
33715;DHT22;20043;50.998;4.754;2022-10-16T16:46:37;18.60;99.90
33715;DHT22;20043;50.998;4.754;2022-10-16T16:49:05;18.80;99.90
33715;DHT22;20043;50.998;4.754;2022-10-16T16:51:32;18.80;99.90
33715;DHT22;20043;50.998;4.754;2022-10-16T16:53:57;18.70;99.90
33715;DHT22;20043;50.998;4.754;2022-10-16T16:56:25;18.60;99.90
33715;DHT22;20043;50.998;4.754;2022-10-16T16:58:53;18.50;99.90
33715;DHT22;20043;50.998;4.754;2022-10-16T17:01:20;18.50;99.90
33715;DHT22;20043;50.998;4.754;2022-10-16T17:03:47;18.40;99.90